Time;durP1;ratioP1;P1;durP2;ratioP2;P2;SDS_P1;SDS_P2;PMS_P1;PMS_P2;Temp;Humidity;BMP_temperature;BMP_pressure;BME280_temperature;BME280_humidity;BME280_pressure;Samples;Min_cycle;Max_cycle;Signal;HPM_P1;HPM_P2
2022/03/16 00:01:18;;;;;;;62.40;31.33;;;6.70;99.90;;;;;;5007096;28;20068;-89
2022/03/16 00:03:44;;;;;;;58.65;32.58;;;6.70;99.90;;;;;;5034219;28;20116;-89
2022/03/16 00:06:10;;;;;;;60.50;32.25;;;7.50;99.90;;;;;;4998113;28;20462;-89
2022/03/16 00:08:36;;;;;;;65.30;33.08;;;6.60;99.90;;;;;;5016382;28;20053;-89
2022/03/16 00:11:02;;;;;;;62.83;33.53;;;6.50;99.90;;;;;;5018038;28;20044;-88
2022/03/16 00:13:27;;;;;;;65.82;32.58;;;6.50;99.90;;;;;;5016168;28;20145;-88
2022/03/16 00:15:53;;;;;;;63.47;32.78;;;6.50;99.90;;;;;;5006341;28;20143;-88
2022/03/16 00:18:19;;;;;;;68.80;33.63;;;6.50;99.90;;;;;;5016804;28;20037;-89
2022/03/16 00:20:48;;;;;;;62.17;33.63;;;6.40;99.90;;;;;;4998858;28;20447;-88
2022/03/16 00:23:17;;;;;;;69.38;34.65;;;6.50;99.90;;;;;;5015698;28;20435;-89
2022/03/16 00:25:43;;;;;;;69.85;33.92;;;6.50;99.90;;;;;;5016144;28;20037;-89
2022/03/16 00:28:09;;;;;;;62.60;33.42;;;6.50;99.90;;;;;;5014507;28;20056;-89
2022/03/16 00:30:38;;;;;;;73.45;35.03;;;6.40;99.90;;;;;;5016926;28;20384;-89
2022/03/16 00:33:05;;;;;;;73.60;35.65;;;6.40;99.90;;;;;;5000566;28;20045;-89
2022/03/16 00:35:31;;;;;;;58.08;32.17;;;6.40;99.90;;;;;;5001837;28;20041;-89
2022/03/16 00:37:57;;;;;;;68.93;34.92;;;6.40;99.90;;;;;;5012773;28;20052;-89
2022/03/16 00:40:23;;;;;;;70.80;35.97;;;6.40;99.90;;;;;;5016839;28;20497;-89
2022/03/16 00:42:48;;;;;;;68.87;36.07;;;6.30;99.90;;;;;;5016553;28;20040;-90
2022/03/16 00:45:14;;;;;;;67.70;34.27;;;6.50;99.90;;;;;;5006235;28;20323;-89
2022/03/16 00:47:40;;;;;;;68.60;34.47;;;6.30;99.90;;;;;;5024150;28;20422;-89
2022/03/16 00:50:07;;;;;;;70.97;34.85;;;6.90;99.90;;;;;;5014388;28;20052;-88
2022/03/16 00:52:32;;;;;;;70.57;34.78;;;6.20;99.90;;;;;;5015507;28;20044;-89
2022/03/16 00:54:58;;;;;;;71.40;35.22;;;6.10;99.90;;;;;;5016443;28;20124;-89
2022/03/16 00:57:24;;;;;;;70.57;36.13;;;6.10;99.90;;;;;;4997431;28;20041;-88
2022/03/16 00:59:50;;;;;;;75.32;35.28;;;6.10;99.90;;;;;;5013926;28;20072;-89
2022/03/16 01:02:15;;;;;;;68.35;35.00;;;6.00;99.90;;;;;;4997063;28;20120;-89
2022/03/16 01:04:41;;;;;;;68.70;34.38;;;6.00;99.90;;;;;;5014637;28;20493;-89
2022/03/16 01:07:07;;;;;;;71.55;36.33;;;6.00;99.90;;;;;;4988300;28;20104;-89
2022/03/16 01:09:34;;;;;;;74.10;35.55;;;5.90;99.90;;;;;;5003874;28;20050;-88
2022/03/16 01:12:01;;;;;;;73.30;36.40;;;6.80;99.90;;;;;;5005353;28;20037;-88
2022/03/16 01:14:26;;;;;;;67.90;34.78;;;6.00;99.90;;;;;;5014570;28;20037;-88
2022/03/16 01:16:52;;;;;;;77.93;37.10;;;5.90;99.90;;;;;;4998325;28;20052;-88
2022/03/16 01:19:18;;;;;;;75.53;37.23;;;5.90;99.90;;;;;;5026880;28;20367;-89
2022/03/16 01:21:44;;;;;;;74.32;35.28;;;5.90;99.90;;;;;;5017120;28;20489;-88
2022/03/16 01:24:10;;;;;;;68.07;35.40;;;5.90;99.90;;;;;;5013949;28;20072;-89
2022/03/16 01:26:36;;;;;;;67.68;34.65;;;5.80;99.90;;;;;;5016417;28;20080;-89
2022/03/16 01:29:02;;;;;;;68.75;34.95;;;6.10;99.90;;;;;;5016185;28;20480;-88
2022/03/16 01:31:28;;;;;;;70.40;35.05;;;6.70;99.90;;;;;;5017425;28;20044;-88
2022/03/16 01:33:54;;;;;;;63.93;33.23;;;6.60;99.90;;;;;;5014479;28;20051;-86
2022/03/16 01:36:20;;;;;;;68.53;33.60;;;5.90;99.90;;;;;;4999422;28;20284;-88
2022/03/16 01:38:46;;;;;;;69.00;35.58;;;6.00;99.90;;;;;;5013423;28;20033;-88
2022/03/16 01:41:12;;;;;;;76.88;36.30;;;5.90;99.90;;;;;;4995873;28;20401;-87
2022/03/16 01:43:39;;;;;;;67.70;34.20;;;5.90;99.90;;;;;;5019239;28;20041;-88
2022/03/16 01:46:05;;;;;;;71.90;34.88;;;6.40;99.90;;;;;;5016428;28;20370;-88
2022/03/16 01:48:31;;;;;;;68.88;34.20;;;5.90;99.90;;;;;;5000686;28;20463;-88
2022/03/16 01:50:56;;;;;;;63.65;31.52;;;6.40;99.90;;;;;;5013647;28;20081;-88
2022/03/16 01:53:24;;;;;;;72.25;35.17;;;5.90;99.90;;;;;;5015492;28;20394;-89
2022/03/16 01:55:50;;;;;;;64.97;32.85;;;5.70;99.90;;;;;;5013591;28;20516;-89
2022/03/16 01:58:19;;;;;;;62.33;33.58;;;5.60;99.90;;;;;;5014835;28;20033;-87
2022/03/16 02:00:45;;;;;;;60.55;31.20;;;5.60;99.90;;;;;;5013565;28;20037;-88
2022/03/16 02:03:11;;;;;;;61.30;32.33;;;5.50;99.90;;;;;;5014945;28;20083;-87
2022/03/16 02:05:37;;;;;;;56.72;30.08;;;6.10;99.90;;;;;;5016117;28;20124;-88
2022/03/16 02:08:05;;;;;;;65.32;33.60;;;5.40;99.90;;;;;;5017194;28;20124;-88
2022/03/16 02:10:31;;;;;;;62.97;31.90;;;5.40;99.90;;;;;;5013402;28;20040;-88
2022/03/16 02:12:57;;;;;;;65.47;33.03;;;5.40;99.90;;;;;;5012748;28;20041;-88
2022/03/16 02:15:24;;;;;;;61.70;33.20;;;5.40;99.90;;;;;;5013374;28;20112;-88
2022/03/16 02:17:54;;;;;;;69.97;33.85;;;5.40;99.90;;;;;;5016006;28;20065;-88
2022/03/16 02:20:21;;;;;;;67.00;34.00;;;6.40;99.90;;;;;;5015643;28;20038;-88
2022/03/16 02:23:07;;;;;;;64.32;31.65;;;5.30;99.90;;;;;;5005901;28;20040;-88
2022/03/16 02:25:34;;;;;;;68.03;33.03;;;5.30;99.90;;;;;;5014798;28;20533;-88
2022/03/16 02:28:00;;;;;;;64.95;34.40;;;5.20;99.90;;;;;;5013606;28;20370;-87
2022/03/16 02:30:28;;;;;;;59.95;31.73;;;5.20;99.90;;;;;;4996288;28;20107;-88
2022/03/16 02:32:53;;;;;;;68.45;34.38;;;5.10;99.90;;;;;;5013993;28;20056;-88
2022/03/16 02:35:21;;;;;;;70.75;35.42;;;5.10;99.90;;;;;;5021174;28;20045;-88
2022/03/16 02:37:47;;;;;;;70.55;34.50;;;5.00;99.90;;;;;;5014896;28;20493;-88
2022/03/16 02:40:18;;;;;;;80.13;36.83;;;5.20;99.90;;;;;;5020955;28;20098;-88
2022/03/16 02:42:43;;;;;;;79.03;38.63;;;4.90;99.90;;;;;;5015481;28;20528;-88
2022/03/16 02:45:09;;;;;;;87.10;39.22;;;5.70;99.90;;;;;;5009236;28;20072;-88
2022/03/16 02:47:38;;;;;;;81.55;37.25;;;4.80;99.90;;;;;;5006751;28;20045;-88
2022/03/16 02:50:04;;;;;;;82.30;36.95;;;5.60;99.90;;;;;;5015738;28;20099;-88
2022/03/16 02:52:30;;;;;;;67.25;34.10;;;4.90;99.90;;;;;;5005270;28;20044;-89
2022/03/16 02:54:56;;;;;;;75.70;36.97;;;4.90;99.90;;;;;;5018472;28;20041;-88
2022/03/16 02:57:21;;;;;;;84.93;38.63;;;4.90;99.90;;;;;;4999700;28;20296;-89
2022/03/16 02:59:47;;;;;;;75.73;36.60;;;4.90;99.90;;;;;;5016645;28;20045;-88
2022/03/16 03:02:13;;;;;;;86.65;39.03;;;4.90;99.90;;;;;;5016769;28;20029;-87
2022/03/16 03:04:38;;;;;;;80.72;36.25;;;5.10;99.90;;;;;;5019737;28;20050;-88
2022/03/16 03:07:05;;;;;;;84.80;37.95;;;4.90;99.90;;;;;;5017759;28;20424;-89
2022/03/16 03:09:31;;;;;;;;;;;5.00;99.90;;;;;;5018313;28;20033;-89
2022/03/16 03:11:59;;;;;;;77.45;36.88;;;5.00;99.90;;;;;;5015484;28;19917;-89
2022/03/16 03:14:26;;;;;;;78.80;36.63;;;5.60;99.90;;;;;;5000742;28;20473;-88
2022/03/16 03:16:51;;;;;;;75.32;36.35;;;5.00;99.90;;;;;;5018327;28;20045;-88
2022/03/16 03:19:17;;;;;;;77.23;36.97;;;4.90;99.90;;;;;;5015796;28;20136;-87
2022/03/16 03:21:43;;;;;;;80.33;36.97;;;4.80;99.90;;;;;;5019318;28;20280;-89
2022/03/16 03:24:09;;;;;;;77.80;35.53;;;4.80;99.90;;;;;;5016778;28;20120;-88
2022/03/16 03:26:35;;;;;;;91.45;38.50;;;4.80;99.90;;;;;;5016034;28;20095;-88
2022/03/16 03:29:01;;;;;;;79.43;37.40;;;4.80;99.90;;;;;;5002085;28;20036;-89
2022/03/16 03:31:26;;;;;;;88.33;39.07;;;5.60;99.90;;;;;;5000175;28;20033;-87
2022/03/16 03:33:52;;;;;;;91.03;38.43;;;4.80;99.90;;;;;;5010927;28;20780;-87
2022/03/16 03:36:17;;;;;;;81.37;37.63;;;5.20;99.90;;;;;;4999135;28;20038;-88
2022/03/16 03:38:43;;;;;;;84.70;39.23;;;4.80;99.90;;;;;;5015707;28;20304;-88
2022/03/16 03:41:09;;;;;;;79.23;35.67;;;4.70;99.90;;;;;;4996829;28;20042;-87
2022/03/16 03:43:35;;;;;;;83.53;37.28;;;4.70;99.90;;;;;;5015523;28;20042;-89
2022/03/16 03:46:00;;;;;;;81.63;38.00;;;4.70;99.90;;;;;;5015860;28;20042;-89
2022/03/16 03:48:26;;;;;;;81.43;37.30;;;4.70;99.90;;;;;;5017462;28;20292;-89
2022/03/16 03:50:52;;;;;;;84.57;36.80;;;4.80;99.90;;;;;;5017323;28;20029;-89
2022/03/16 03:53:17;;;;;;;81.60;37.92;;;4.60;99.90;;;;;;5029690;28;20052;-88
2022/03/16 03:55:43;;;;;;;80.75;36.75;;;5.10;99.90;;;;;;4999155;28;20136;-88
2022/03/16 03:58:08;;;;;;;82.27;36.43;;;4.60;99.90;;;;;;4999014;28;20052;-87
2022/03/16 04:00:34;;;;;;;70.80;35.90;;;4.60;99.90;;;;;;4998736;28;20051;-87
2022/03/16 04:03:00;;;;;;;82.43;39.83;;;4.60;99.90;;;;;;4998952;28;20831;-87
2022/03/16 04:05:26;;;;;;;92.40;40.85;;;4.50;99.90;;;;;;5013755;28;20041;-87
2022/03/16 04:07:51;;;;;;;88.10;39.03;;;4.50;99.90;;;;;;4985135;28;20049;-88
2022/03/16 04:10:18;;;;;;;89.93;39.70;;;5.00;99.90;;;;;;5006059;28;20139;-88
2022/03/16 04:12:44;;;;;;;91.40;39.30;;;4.50;99.90;;;;;;5017565;28;20052;-88
2022/03/16 04:15:11;;;;;;;78.72;37.85;;;4.50;99.90;;;;;;5014978;28;20046;-88
2022/03/16 04:17:37;;;;;;;83.78;38.78;;;4.50;99.90;;;;;;5001027;28;20040;-88
2022/03/16 04:20:03;;;;;;;85.35;38.40;;;4.50;99.90;;;;;;5007677;28;20037;-88
2022/03/16 04:22:29;;;;;;;76.78;35.80;;;4.50;99.90;;;;;;5015824;28;20041;-89
2022/03/16 04:24:56;;;;;;;99.45;43.00;;;4.50;99.90;;;;;;5020559;28;20477;-89
2022/03/16 04:27:24;;;;;;;84.55;39.15;;;4.50;99.90;;;;;;5014962;28;20107;-88
2022/03/16 04:29:49;;;;;;;84.97;37.05;;;4.70;99.90;;;;;;5018766;28;20040;-87
2022/03/16 04:32:16;;;;;;;108.05;44.60;;;4.50;99.90;;;;;;5002302;28;20537;-88
2022/03/16 04:34:42;;;;;;;89.95;39.22;;;4.50;99.90;;;;;;4999727;28;20042;-87
2022/03/16 04:37:08;;;;;;;129.57;45.50;;;4.50;99.90;;;;;;5000793;28;20068;-88
2022/03/16 04:39:33;;;;;;;146.00;41.30;;;4.50;99.90;;;;;;4998635;28;20401;-88
2022/03/16 04:41:59;;;;;;;126.30;40.20;;;4.50;99.90;;;;;;4998046;28;20091;-87
2022/03/16 04:44:25;;;;;;;154.73;45.77;;;4.70;99.90;;;;;;5016137;28;20287;-88
2022/03/16 04:46:50;;;;;;;135.83;42.50;;;4.60;99.90;;;;;;5023953;28;20505;-88
2022/03/16 04:49:16;;;;;;;135.30;47.63;;;5.00;99.90;;;;;;5013963;28;20284;-88
2022/03/16 04:51:42;;;;;;;127.03;45.70;;;4.50;99.90;;;;;;4997144;28;20121;-88
2022/03/16 04:54:08;;;;;;;102.97;42.33;;;4.50;99.90;;;;;;4989684;28;20282;-88
2022/03/16 04:56:35;;;;;;;97.18;39.85;;;4.50;99.90;;;;;;5016781;28;20037;-88
2022/03/16 04:59:01;;;;;;;128.82;45.78;;;4.50;99.90;;;;;;5017373;28;20041;-87
2022/03/16 05:01:27;;;;;;;93.78;38.97;;;4.50;99.90;;;;;;5016738;28;20045;-87
2022/03/16 05:03:53;;;;;;;90.68;37.88;;;4.50;99.90;;;;;;5018835;28;20488;-88
2022/03/16 05:06:20;;;;;;;95.90;38.93;;;4.60;99.90;;;;;;4997266;28;20111;-87
2022/03/16 05:08:47;;;;;;;136.57;41.80;;;4.60;99.90;;;;;;4996879;28;20044;-89
2022/03/16 05:11:16;;;;;;;121.43;40.83;;;4.60;99.90;;;;;;5016252;28;20115;-88
2022/03/16 05:13:42;;;;;;;134.30;39.90;;;4.60;99.90;;;;;;4998780;28;20087;-88
2022/03/16 05:16:08;;;;;;;202.50;49.35;;;4.80;99.90;;;;;;4998515;28;20033;-88
2022/03/16 05:18:34;;;;;;;175.48;46.15;;;4.60;99.90;;;;;;5014087;28;20075;-87
2022/03/16 05:21:03;;;;;;;144.82;43.55;;;5.30;99.90;;;;;;4987557;28;20038;-87
2022/03/16 05:23:29;;;;;;;150.07;43.40;;;4.50;99.90;;;;;;5014737;28;20037;-82
2022/03/16 05:25:55;;;;;;;131.45;40.15;;;4.50;99.90;;;;;;4997890;28;20458;-83
2022/03/16 05:28:21;;;;;;;196.90;50.95;;;4.50;99.90;;;;;;5016423;28;20052;-82
2022/03/16 05:30:48;;;;;;;127.28;42.67;;;4.50;99.90;;;;;;5005634;28;20108;-83
2022/03/16 05:33:14;;;;;;;96.20;39.28;;;4.50;99.90;;;;;;5022726;28;20033;-82
2022/03/16 05:35:41;;;;;;;94.78;38.13;;;4.50;99.90;;;;;;5014465;28;20033;-84
2022/03/16 05:38:08;;;;;;;128.15;43.90;;;4.50;99.90;;;;;;5004228;28;20549;-84
2022/03/16 05:40:35;;;;;;;95.22;39.92;;;4.50;99.90;;;;;;5013845;28;20132;-83
2022/03/16 05:43:01;;;;;;;97.78;40.80;;;4.50;99.90;;;;;;4999711;28;20037;-84
2022/03/16 05:45:26;;;;;;;83.60;37.20;;;4.50;99.90;;;;;;5011467;28;20039;-84
2022/03/16 05:47:52;;;;;;;85.65;35.90;;;4.50;99.90;;;;;;5016697;28;20065;-82
2022/03/16 05:50:18;;;;;;;88.83;37.53;;;4.50;99.90;;;;;;5000221;28;20049;-83
2022/03/16 05:52:46;;;;;;;77.78;36.47;;;4.60;99.90;;;;;;5014798;28;20045;-83
2022/03/16 05:55:13;;;;;;;92.45;40.20;;;4.50;99.90;;;;;;5013787;28;20116;-84
2022/03/16 05:57:40;;;;;;;89.90;38.78;;;4.50;99.90;;;;;;5004908;28;20393;-83
2022/03/16 06:00:11;;;;;;;88.32;37.08;;;5.30;99.90;;;;;;5013776;28;20543;-83
2022/03/16 06:02:36;;;;;;;88.35;38.15;;;4.50;99.90;;;;;;5015463;28;20095;-83
2022/03/16 06:05:03;;;;;;;87.22;36.65;;;4.50;99.90;;;;;;5015472;28;20041;-83
2022/03/16 06:07:28;;;;;;;91.50;38.15;;;4.60;99.90;;;;;;5023632;28;20493;-83
2022/03/16 06:09:54;;;;;;;73.05;35.05;;;4.60;99.90;;;;;;5031588;28;20095;-84
2022/03/16 06:12:20;;;;;;;82.37;36.30;;;5.40;99.90;;;;;;4997894;28;20041;-84
2022/03/16 06:14:46;;;;;;;76.87;35.87;;;4.60;99.90;;;;;;5013512;28;20069;-84
2022/03/16 06:17:11;;;;;;;82.25;37.63;;;4.70;99.90;;;;;;4997344;28;20788;-83
2022/03/16 06:19:37;;;;;;;81.67;36.17;;;4.70;99.90;;;;;;5013355;28;20037;-83
2022/03/16 06:22:03;;;;;;;81.50;36.13;;;4.70;99.90;;;;;;5002111;28;20030;-84
2022/03/16 06:24:29;;;;;;;77.57;35.28;;;4.70;99.90;;;;;;5015155;28;20284;-83
2022/03/16 06:26:54;;;;;;;70.60;34.67;;;4.70;99.90;;;;;;5025046;28;20049;-84
2022/03/16 06:29:20;;;;;;;76.18;36.72;;;4.80;99.90;;;;;;5035761;28;20045;-83
2022/03/16 06:31:46;;;;;;;71.43;33.92;;;4.80;99.90;;;;;;5020130;28;20077;-84
2022/03/16 06:34:11;;;;;;;79.63;36.45;;;4.80;99.90;;;;;;5023716;28;20038;-83
2022/03/16 06:36:37;;;;;;;77.67;35.83;;;4.90;99.90;;;;;;5020129;28;20405;-83
2022/03/16 06:39:03;;;;;;;81.03;37.63;;;4.90;99.90;;;;;;5018088;28;20371;-84
2022/03/16 06:41:28;;;;;;;72.70;34.63;;;4.90;99.90;;;;;;5018427;28;20037;-83
2022/03/16 06:43:54;;;;;;;74.53;34.13;;;4.90;99.90;;;;;;5017472;28;20452;-84
2022/03/16 06:46:20;;;;;;;73.23;36.00;;;5.00;99.90;;;;;;5016985;28;20375;-83
2022/03/16 06:48:46;;;;;;;76.47;35.63;;;5.00;99.90;;;;;;5021527;28;20098;-83
2022/03/16 06:51:11;;;;;;;70.72;34.20;;;5.30;99.90;;;;;;5028222;28;21078;-84
2022/03/16 06:53:37;;;;;;;69.20;33.00;;;5.00;99.90;;;;;;5017274;28;20290;-83
2022/03/16 06:56:03;;;;;;;63.13;30.80;;;5.10;99.90;;;;;;5003202;28;20051;-83
2022/03/16 06:58:30;;;;;;;63.22;31.02;;;5.10;99.90;;;;;;5016287;28;20041;-83
2022/03/16 07:00:55;;;;;;;63.45;30.80;;;5.10;99.90;;;;;;5019127;28;20089;-83
2022/03/16 07:03:22;;;;;;;71.50;32.93;;;5.10;99.90;;;;;;5023814;28;20077;-83
2022/03/16 07:05:48;;;;;;;63.20;31.85;;;5.10;99.90;;;;;;5018433;28;20284;-84
2022/03/16 07:08:14;;;;;;;67.85;31.45;;;5.10;99.90;;;;;;5016663;28;20475;-83
2022/03/16 07:10:42;;;;;;;62.95;31.08;;;5.20;99.90;;;;;;5000259;28;20559;-84
2022/03/16 07:13:09;;;;;;;63.33;31.80;;;5.20;99.90;;;;;;5018079;28;20049;-84
2022/03/16 07:15:35;;;;;;;66.07;31.33;;;5.20;99.90;;;;;;5018939;28;20045;-85
2022/03/16 07:18:04;;;;;;;57.80;30.02;;;5.30;99.90;;;;;;5017087;28;20478;-84
2022/03/16 07:20:31;;;;;;;59.47;30.60;;;5.30;99.90;;;;;;5017646;28;20038;-84
2022/03/16 07:23:05;;;;;;;67.95;32.30;;;5.30;99.90;;;;;;5016348;28;20468;-84
2022/03/16 07:25:31;;;;;;;59.72;30.83;;;5.30;99.90;;;;;;5016373;28;20393;-85
2022/03/16 07:27:57;;;;;;;60.92;30.10;;;5.30;99.90;;;;;;5016801;28;20047;-84
2022/03/16 07:30:23;;;;;;;61.78;30.25;;;5.40;99.90;;;;;;5029797;28;20042;-85
2022/03/16 07:32:49;;;;;;;62.78;30.80;;;5.50;99.90;;;;;;5018728;28;20064;-85
2022/03/16 07:35:14;;;;;;;57.30;29.30;;;5.70;99.90;;;;;;5016027;28;20133;-85
2022/03/16 07:37:42;;;;;;;59.40;30.33;;;5.70;99.90;;;;;;4999576;28;20851;-84
2022/03/16 07:40:09;;;;;;;56.92;29.75;;;5.80;99.90;;;;;;5016953;28;20284;-84
2022/03/16 07:42:36;;;;;;;57.65;28.92;;;5.80;99.90;;;;;;5015595;28;20049;-85
2022/03/16 07:45:02;;;;;;;50.80;27.45;;;5.90;99.90;;;;;;5015900;28;20393;-85
2022/03/16 07:47:28;;;;;;;;;;;6.00;99.90;;;;;;5015500;28;20041;-84
2022/03/16 07:49:56;;;;;;;47.40;26.27;;;6.10;99.90;;;;;;4991881;28;20434;-84
2022/03/16 07:52:23;;;;;;;47.25;25.92;;;6.30;99.90;;;;;;5015485;28;20050;-84
2022/03/16 07:54:48;;;;;;;48.92;27.10;;;6.50;99.90;;;;;;5015535;28;20042;-84
2022/03/16 07:57:16;;;;;;;48.75;26.17;;;7.10;99.90;;;;;;5019744;28;20106;-82
2022/03/16 07:59:42;;;;;;;46.92;25.45;;;6.70;99.90;;;;;;5014991;28;20077;-83
2022/03/16 08:02:08;;;;;;;49.08;28.52;;;6.90;99.90;;;;;;5018709;28;20116;-83
2022/03/16 08:04:33;;;;;;;44.25;24.50;;;7.40;99.90;;;;;;5016550;28;20145;-83
2022/03/16 08:06:59;;;;;;;45.65;25.77;;;7.30;99.90;;;;;;5000071;28;20112;-84
2022/03/16 08:09:25;;;;;;;42.50;24.08;;;7.60;99.90;;;;;;4999035;28;20083;-83
2022/03/16 08:11:50;;;;;;;42.30;23.13;;;7.50;99.90;;;;;;5019513;28;20033;-83
2022/03/16 08:14:16;;;;;;;43.43;24.83;;;7.50;99.90;;;;;;5023310;28;20620;-83
2022/03/16 08:16:42;;;;;;;45.78;22.95;;;7.60;99.90;;;;;;4999330;28;20036;-83
2022/03/16 08:19:07;;;;;;;37.03;22.17;;;7.60;99.90;;;;;;5030862;28;20053;-83
2022/03/16 08:21:33;;;;;;;42.25;23.75;;;7.70;99.90;;;;;;5015649;28;20086;-83
2022/03/16 08:23:59;;;;;;;41.22;23.58;;;7.90;99.90;;;;;;5016979;28;20029;-83
2022/03/16 08:26:25;;;;;;;37.90;22.58;;;8.20;99.90;;;;;;5000251;28;20033;-84
2022/03/16 08:28:51;;;;;;;39.33;22.90;;;8.20;99.90;;;;;;5015261;28;20395;-83
2022/03/16 08:31:17;;;;;;;39.22;22.38;;;8.30;99.90;;;;;;5019359;28;20072;-83
2022/03/16 08:33:43;;;;;;;39.22;22.40;;;8.40;99.90;;;;;;4998397;28;20053;-84
2022/03/16 08:36:10;;;;;;;34.60;20.83;;;8.70;99.90;;;;;;4998755;28;20168;-84
2022/03/16 08:38:37;;;;;;;36.75;21.75;;;9.20;99.90;;;;;;5014431;28;20486;-83
2022/03/16 08:41:07;;;;;;;35.53;21.60;;;9.70;99.90;;;;;;5017913;28;20041;-83
2022/03/16 08:43:37;;;;;;;32.50;20.33;;;10.10;99.90;;;;;;5015055;28;20354;-79
2022/03/16 08:46:03;;;;;;;35.05;20.23;;;10.20;99.90;;;;;;5013097;28;20029;-83
2022/03/16 08:48:29;;;;;;;;;;;10.50;99.90;;;;;;5034252;28;20040;-79
2022/03/16 08:50:55;;;;;;;32.92;20.55;;;10.60;99.90;;;;;;5014562;28;19924;-80
2022/03/16 08:53:21;;;;;;;29.92;20.30;;;11.00;99.90;;;;;;5001748;28;20120;-84
2022/03/16 08:55:47;;;;;;;32.75;20.25;;;11.20;99.90;;;;;;5016542;28;20119;-83
2022/03/16 08:58:15;;;;;;;29.55;19.73;;;11.50;99.90;;;;;;5015851;28;20069;-85
2022/03/16 09:00:41;;;;;;;29.13;18.95;;;12.00;99.90;;;;;;5013759;28;20037;-85
2022/03/16 09:03:08;;;;;;;29.33;18.80;;;12.20;99.90;;;;;;5008891;28;20037;-85
2022/03/16 09:05:34;;;;;;;;;;;12.80;99.90;;;;;;5014379;28;20424;-83
2022/03/16 09:07:59;;;;;;;30.83;19.00;;;13.60;99.90;;;;;;5016630;28;20369;-85
2022/03/16 09:10:25;;;;;;;24.90;16.45;;;14.10;99.90;;;;;;5015821;28;20049;-84
2022/03/16 09:12:51;;;;;;;26.80;17.33;;;14.70;99.90;;;;;;5031316;28;20572;-84
2022/03/16 09:15:17;;;;;;;26.38;17.15;;;14.70;99.90;;;;;;5015730;28;20551;-84
2022/03/16 09:17:42;;;;;;;25.30;17.17;;;15.10;99.90;;;;;;5019006;28;20044;-87
2022/03/16 09:20:08;;;;;;;29.10;17.63;;;15.00;99.90;;;;;;5030214;28;20050;-85
2022/03/16 09:22:34;;;;;;;27.75;17.20;;;15.50;99.90;;;;;;5016688;28;20119;-86
2022/03/16 09:24:59;;;;;;;25.83;16.63;;;15.60;99.90;;;;;;5016628;28;20038;-86
2022/03/16 09:27:26;;;;;;;25.98;16.88;;;15.50;99.90;;;;;;4998195;28;20175;-85
2022/03/16 09:29:54;;;;;;;29.13;18.25;;;15.40;99.90;;;;;;4989435;28;20415;-85
2022/03/16 09:32:21;;;;;;;26.52;17.25;;;15.20;99.90;;;;;;4997317;28;20093;-84
2022/03/16 09:34:48;;;;;;;27.88;17.88;;;14.80;99.90;;;;;;5014758;28;20100;-85
2022/03/16 09:37:13;;;;;;;26.80;17.08;;;14.70;99.90;;;;;;5014414;28;20041;-85
2022/03/16 09:39:40;;;;;;;27.65;17.85;;;14.00;99.90;;;;;;4996652;28;20818;-84
2022/03/16 09:42:06;;;;;;;25.02;16.80;;;14.10;99.90;;;;;;5013454;28;20037;-84
2022/03/16 09:44:32;;;;;;;25.52;17.00;;;14.10;99.90;;;;;;5013067;28;20034;-84
2022/03/16 09:46:59;;;;;;;25.70;16.20;;;14.80;99.90;;;;;;5016256;28;20847;-86
2022/03/16 09:49:26;;;;;;;26.25;16.48;;;15.40;99.90;;;;;;5014423;28;20480;-85
2022/03/16 09:51:53;;;;;;;25.95;16.30;;;15.70;99.90;;;;;;5005698;28;20044;-85
2022/03/16 09:54:19;;;;;;;23.42;14.90;;;16.00;99.90;;;;;;5013210;28;20095;-85
2022/03/16 09:56:47;;;;;;;23.92;14.85;;;16.00;99.90;;;;;;5015910;28;20047;-86
2022/03/16 09:59:14;;;;;;;20.70;14.35;;;16.50;99.90;;;;;;5015983;28;20045;-85
2022/03/16 10:01:42;;;;;;;21.42;13.63;;;16.40;99.90;;;;;;5013600;28;20045;-86
2022/03/16 10:04:07;;;;;;;20.52;13.60;;;16.50;99.90;;;;;;4997483;28;20048;-85
2022/03/16 10:06:37;;;;;;;19.80;13.68;;;16.90;99.90;;;;;;5016124;28;20124;-85
2022/03/16 10:15:12;;;;;;;18.75;11.98;;;17.00;99.90;;;;;;5013087;28;20041;-86
2022/03/16 10:17:46;;;;;;;16.95;11.10;;;17.30;99.90;;;;;;5013162;28;20037;-86
2022/03/16 10:20:21;;;;;;;16.83;11.25;;;17.00;99.90;;;;;;5016322;28;20041;-85
2022/03/16 10:22:54;;;;;;;17.13;11.60;;;17.80;99.90;;;;;;5014714;28;20037;-85
2022/03/16 10:25:21;;;;;;;17.73;11.20;;;17.90;99.90;;;;;;5014795;28;20493;-86
2022/03/16 10:27:46;;;;;;;17.40;11.20;;;18.20;99.90;;;;;;5012875;28;20405;-86
2022/03/16 10:30:13;;;;;;;15.70;10.52;;;18.10;99.90;;;;;;5014815;28;20046;-85
2022/03/16 10:32:39;;;;;;;15.75;10.73;;;17.80;99.90;;;;;;5007132;28;20116;-86
2022/03/16 10:35:06;;;;;;;18.25;10.68;;;18.10;99.90;;;;;;5011301;28;20085;-85
2022/03/16 10:37:34;;;;;;;;;;;18.20;99.90;;;;;;5015402;28;20033;-83
2022/03/16 10:40:00;;;;;;;14.73;10.40;;;17.80;99.90;;;;;;5013036;28;19964;-81
2022/03/16 10:48:19;;;;;;;14.57;10.30;;;18.10;99.90;;;;;;5013186;28;20056;-83
2022/03/16 10:50:47;;;;;;;15.90;9.88;;;17.90;99.90;;;;;;5011319;28;20052;-84
2022/03/16 10:53:15;;;;;;;13.27;9.52;;;18.10;99.90;;;;;;5016124;28;20083;-83
2022/03/16 10:55:43;;;;;;;12.60;7.97;;;17.90;99.90;;;;;;5012630;28;20555;-83
2022/03/16 10:58:10;;;;;;;11.68;7.50;;;17.70;97.90;;;;;;5014100;28;20048;-83
2022/03/16 11:00:38;;;;;;;11.75;7.18;;;17.50;97.90;;;;;;5012720;28;20413;-82
2022/03/16 11:03:06;;;;;;;11.57;7.55;;;17.70;98.00;;;;;;5015467;28;20116;-83
2022/03/16 11:05:36;;;;;;;12.23;7.68;;;17.90;97.00;;;;;;5015420;28;20050;-83
2022/03/16 11:08:09;;;;;;;11.90;8.20;;;17.90;96.40;;;;;;5017247;28;20393;-83
2022/03/16 11:10:42;;;;;;;11.45;7.85;;;17.80;96.70;;;;;;5014782;28;20076;-83
2022/03/16 11:15:57;;;;;;;15.23;8.70;;;18.30;96.40;;;;;;5009143;28;20119;-83
2022/03/16 11:18:24;;;;;;;13.68;9.02;;;19.00;94.70;;;;;;5019219;28;20095;-83
2022/03/16 11:20:56;;;;;;;11.68;8.05;;;18.80;95.90;;;;;;5019172;28;20049;-83
2022/03/16 11:26:34;;;;;;;12.82;9.05;;;18.90;93.20;;;;;;5036590;28;20044;-83
2022/03/16 11:29:32;;;;;;;12.38;9.07;;;18.30;93.90;;;;;;5016430;28;20116;-83
2022/03/16 11:32:09;;;;;;;15.05;8.85;;;18.40;94.00;;;;;;5015726;28;20037;-83
2022/03/16 11:34:36;;;;;;;14.15;9.32;;;18.50;94.10;;;;;;5008348;28;20040;-83
2022/03/16 11:37:09;;;;;;;16.17;9.50;;;18.60;94.50;;;;;;5018439;28;20404;-83
2022/03/16 11:39:47;;;;;;;13.02;9.10;;;19.10;92.80;;;;;;5016075;28;20409;-83
2022/03/16 11:42:18;;;;;;;16.15;9.95;;;19.00;92.30;;;;;;5017657;28;20049;-83
2022/03/16 11:44:44;;;;;;;15.25;9.68;;;19.20;93.00;;;;;;5017593;28;20083;-83
2022/03/16 11:47:10;;;;;;;13.02;8.75;;;19.40;92.80;;;;;;5018234;28;20069;-83
2022/03/16 11:49:45;;;;;;;13.70;8.43;;;19.30;91.30;;;;;;5000218;28;20092;-83
2022/03/16 11:52:12;;;;;;;12.13;8.73;;;19.70;91.20;;;;;;5019528;28;20047;-83
2022/03/16 11:54:48;;;;;;;13.88;9.13;;;20.00;91.30;;;;;;5013590;28;20092;-81
2022/03/16 11:57:34;;;;;;;15.20;9.32;;;20.00;90.90;;;;;;5016070;28;20085;-81
2022/03/16 12:00:12;;;;;;;12.20;9.13;;;20.60;90.60;;;;;;5012060;28;20116;-81
2022/03/16 12:02:38;;;;;;;15.90;9.57;;;20.50;90.30;;;;;;5015735;28;20033;-80
2022/03/16 12:05:07;;;;;;;14.40;9.40;;;20.70;89.40;;;;;;5006399;28;20121;-82
2022/03/16 12:07:35;;;;;;;13.02;8.88;;;20.60;88.20;;;;;;5024783;28;20057;-88
2022/03/16 12:10:12;;;;;;;13.07;8.95;;;20.60;86.60;;;;;;5036972;28;20077;-88
2022/03/16 12:12:57;;;;;;;13.40;9.23;;;20.70;86.30;;;;;;5008716;28;20152;-86
2022/03/16 12:15:41;;;;;;;14.25;9.10;;;21.10;87.20;;;;;;5016999;28;20080;-87
2022/03/16 12:18:07;;;;;;;12.25;9.18;;;21.00;85.60;;;;;;5017759;28;20033;-86
2022/03/16 12:20:54;;;;;;;16.08;9.70;;;21.10;83.50;;;;;;5017156;28;20042;-85
2022/03/16 12:23:40;;;;;;;12.57;8.60;;;21.20;83.50;;;;;;5018114;28;20488;-86
2022/03/16 12:26:05;;;;;;;13.38;8.45;;;21.20;83.60;;;;;;5036805;28;20044;-86
2022/03/16 12:31:18;;;;;;;12.50;8.48;;;21.90;80.60;;;;;;5018720;28;20507;-87
2022/03/16 12:33:58;;;;;;;12.35;8.27;;;21.50;78.70;;;;;;5035402;28;20037;-88
2022/03/16 12:36:35;;;;;;;13.63;8.98;;;21.40;79.30;;;;;;5016680;28;20045;-88
2022/03/16 12:39:07;;;;;;;11.80;8.23;;;21.60;79.50;;;;;;5023349;28;20116;-88
2022/03/16 12:44:18;;;;;;;14.05;8.98;;;21.70;79.90;;;;;;5018952;28;20455;-87
2022/03/16 12:46:47;;;;;;;13.15;8.57;;;21.60;78.60;;;;;;5015524;28;20042;-89
2022/03/16 12:49:18;;;;;;;13.15;8.55;;;21.80;79.50;;;;;;5025785;28;20167;-88
2022/03/16 12:51:50;;;;;;;14.00;8.90;;;22.10;78.60;;;;;;5011086;28;20033;-89
2022/03/16 12:54:21;;;;;;;12.55;8.70;;;21.90;78.20;;;;;;5047141;28;20061;-88
2022/03/16 12:57:03;;;;;;;15.65;9.68;;;21.70;77.50;;;;;;5010595;28;20044;-87
2022/03/16 12:59:38;;;;;;;12.90;9.25;;;21.70;77.70;;;;;;5013073;28;20112;-86